Time;durP1;ratioP1;P1;durP2;ratioP2;P2;SDS_P1;SDS_P2;PMS_P1;PMS_P2;Temp;Humidity;BMP_temperature;BMP_pressure;BME280_temperature;BME280_humidity;BME280_pressure;Samples;Min_cycle;Max_cycle;Signal;HPM_P1;HPM_P2
2023/09/15 00:01:36;;;;;;;18.93;17.67;;;11.10;89.80;;;;;;5042232;28;20276;-69
2023/09/15 00:04:05;;;;;;;21.03;19.30;;;11.10;90.50;;;;;;5043405;28;20271;-69
2023/09/15 00:06:32;;;;;;;18.10;16.63;;;11.10;90.40;;;;;;5023689;28;20303;-69
2023/09/15 00:08:58;;;;;;;15.77;14.20;;;11.10;90.20;;;;;;5041641;28;20279;-69
2023/09/15 00:11:24;;;;;;;18.17;16.53;;;11.10;90.50;;;;;;5040503;28;20366;-70
2023/09/15 00:13:50;;;;;;;30.70;28.63;;;11.10;90.50;;;;;;5041229;28;20045;-70
2023/09/15 00:16:16;;;;;;;21.67;20.17;;;11.00;90.50;;;;;;5040370;28;20037;-70
2023/09/15 00:18:42;;;;;;;15.13;14.03;;;11.00;90.90;;;;;;5046934;28;20666;-70
2023/09/15 00:21:09;;;;;;;16.27;14.87;;;11.00;90.70;;;;;;5039187;28;20276;-69
2023/09/15 00:23:38;;;;;;;18.97;17.17;;;11.00;91.00;;;;;;5039791;28;20053;-69
2023/09/15 00:26:04;;;;;;;16.53;15.00;;;10.90;90.80;;;;;;5041752;28;20791;-70
2023/09/15 00:28:30;;;;;;;14.90;13.47;;;10.90;90.60;;;;;;5041118;28;20283;-69
2023/09/15 00:30:59;;;;;;;15.27;14.07;;;10.90;90.80;;;;;;5035713;28;20370;-69
2023/09/15 00:33:25;;;;;;;13.47;12.43;;;10.90;90.50;;;;;;5043670;28;20303;-69
2023/09/15 00:35:51;;;;;;;15.50;14.30;;;10.90;90.60;;;;;;5043434;28;20647;-69
2023/09/15 00:38:17;;;;;;;16.70;15.03;;;10.90;90.50;;;;;;5043303;28;20041;-69
2023/09/15 00:40:42;;;;;;;16.37;14.90;;;10.80;91.00;;;;;;5040244;28;20095;-69
2023/09/15 00:43:08;;;;;;;16.67;15.13;;;10.80;90.80;;;;;;5043985;28;20037;-69
2023/09/15 00:45:34;;;;;;;16.13;14.93;;;10.80;91.00;;;;;;5039325;28;20101;-69
2023/09/15 00:48:00;;;;;;;17.30;16.00;;;10.80;91.20;;;;;;5043524;28;20520;-69
2023/09/15 00:50:29;;;;;;;19.93;18.33;;;10.80;91.60;;;;;;5021538;28;20413;-69
2023/09/15 00:53:10;;;;;;;19.20;17.63;;;10.70;91.70;;;;;;5041217;28;20098;-69
2023/09/15 00:55:38;;;;;;;18.03;16.53;;;10.70;91.30;;;;;;5038128;28;20284;-69
2023/09/15 00:58:08;;;;;;;20.03;18.43;;;10.70;91.90;;;;;;5043494;28;20290;-69
2023/09/15 01:00:34;;;;;;;20.63;19.07;;;10.70;91.90;;;;;;5038894;28;20291;-69
2023/09/15 01:03:00;;;;;;;15.63;14.33;;;10.70;92.00;;;;;;5026791;28;20276;-69
2023/09/15 01:05:28;;;;;;;17.27;15.87;;;10.70;92.10;;;;;;5038618;28;20523;-69
2023/09/15 01:07:54;;;;;;;14.80;13.70;;;10.60;91.80;;;;;;5044413;28;20127;-69
2023/09/15 01:10:21;;;;;;;18.13;16.73;;;10.60;92.00;;;;;;5039796;28;20288;-69
2023/09/15 01:12:49;;;;;;;21.42;19.42;;;10.60;92.10;;;;;;5043696;28;20041;-69
2023/09/15 01:15:17;;;;;;;15.20;13.80;;;10.60;92.70;;;;;;5040192;28;20150;-69
2023/09/15 01:17:50;;;;;;;17.27;15.93;;;10.60;92.00;;;;;;5041969;28;20319;-69
2023/09/15 01:20:28;;;;;;;19.30;17.80;;;10.60;91.90;;;;;;5037833;28;20345;-69
2023/09/15 01:23:04;;;;;;;20.13;18.70;;;10.50;92.40;;;;;;5039327;28;20395;-69
2023/09/15 01:25:59;;;;;;;16.73;15.43;;;10.50;92.10;;;;;;5025912;28;20303;-69
2023/09/15 01:28:40;;;;;;;17.70;16.38;;;10.50;92.00;;;;;;5025653;28;20280;-69
2023/09/15 01:31:07;;;;;;;22.27;20.70;;;10.50;92.10;;;;;;5037341;28;20492;-69
2023/09/15 01:33:33;;;;;;;17.23;15.80;;;10.50;92.00;;;;;;5041031;28;20056;-69
2023/09/15 01:35:59;;;;;;;16.60;15.27;;;10.50;92.00;;;;;;5037938;28;20367;-69
2023/09/15 01:38:25;;;;;;;19.65;18.05;;;10.40;92.00;;;;;;5041279;28;20079;-71
2023/09/15 01:40:50;;;;;;;16.80;15.50;;;10.40;91.90;;;;;;5041313;28;20029;-70
2023/09/15 01:43:16;;;;;;;19.67;18.20;;;10.40;92.00;;;;;;5043554;28;20488;-70
2023/09/15 01:45:42;;;;;;;16.53;15.20;;;10.40;92.20;;;;;;5040938;28;20783;-69
2023/09/15 01:48:09;;;;;;;20.30;18.50;;;10.40;92.10;;;;;;5055174;28;20099;-69
2023/09/15 01:50:36;;;;;;;18.70;17.42;;;10.40;92.70;;;;;;5037594;28;20053;-69
2023/09/15 01:53:04;;;;;;;15.25;14.10;;;10.30;92.60;;;;;;5042588;28;20566;-69
2023/09/15 01:55:31;;;;;;;16.17;14.77;;;10.30;93.00;;;;;;5036932;28;20041;-69
2023/09/15 01:57:57;;;;;;;16.63;15.30;;;10.30;92.80;;;;;;5083195;28;20052;-69
2023/09/15 02:00:23;;;;;;;23.63;21.83;;;10.30;92.70;;;;;;5037429;28;20272;-69
2023/09/15 02:02:48;;;;;;;15.13;13.80;;;10.30;92.50;;;;;;5033272;28;20044;-69
2023/09/15 02:05:23;;;;;;;25.27;23.80;;;10.30;92.30;;;;;;5036909;28;20051;-69
2023/09/15 02:07:49;;;;;;;27.25;25.67;;;10.30;92.20;;;;;;5043830;28;20409;-69
2023/09/15 02:10:15;;;;;;;34.23;32.17;;;10.20;92.60;;;;;;5049573;28;20463;-69
2023/09/15 02:12:40;;;;;;;26.43;24.60;;;10.20;92.50;;;;;;5043382;28;20514;-69
2023/09/15 02:15:07;;;;;;;30.17;28.17;;;10.20;92.80;;;;;;5042996;28;20390;-69
2023/09/15 02:17:32;;;;;;;26.63;24.80;;;10.20;92.70;;;;;;5043118;28;20060;-70
2023/09/15 02:19:58;;;;;;;21.17;19.57;;;10.20;92.80;;;;;;5018239;28;20037;-70
2023/09/15 02:22:26;;;;;;;22.33;20.87;;;10.10;92.60;;;;;;5041749;28;20052;-70
2023/09/15 02:24:52;;;;;;;19.60;18.20;;;10.10;93.30;;;;;;5043295;28;20142;-70
2023/09/15 02:27:18;;;;;;;19.87;18.27;;;10.10;93.70;;;;;;5026007;28;20100;-70
2023/09/15 02:29:43;;;;;;;22.27;20.57;;;10.10;93.40;;;;;;5045643;28;20134;-69
2023/09/15 02:32:09;;;;;;;23.97;22.47;;;10.10;93.30;;;;;;5048952;28;20493;-69
2023/09/15 02:34:35;;;;;;;21.87;20.33;;;10.10;93.60;;;;;;5042793;28;20151;-69
2023/09/15 02:37:00;;;;;;;23.83;22.37;;;10.00;93.30;;;;;;5040882;28;20064;-69
2023/09/15 02:39:26;;;;;;;19.20;17.60;;;10.00;93.20;;;;;;5027038;28;20076;-69
2023/09/15 02:41:52;;;;;;;20.63;18.93;;;10.00;93.40;;;;;;5048211;28;20041;-69
2023/09/15 02:44:17;;;;;;;17.57;16.27;;;10.00;93.30;;;;;;5035005;28;20513;-69
2023/09/15 02:46:43;;;;;;;20.03;18.47;;;10.00;93.70;;;;;;5047227;28;20048;-69
2023/09/15 02:49:09;;;;;;;19.03;17.47;;;10.00;93.70;;;;;;5042891;28;20053;-69
2023/09/15 02:51:37;;;;;;;20.80;19.27;;;10.00;94.00;;;;;;5045335;28;20075;-69
2023/09/15 02:54:03;;;;;;;22.40;20.92;;;9.90;94.70;;;;;;5041837;28;20049;-69
2023/09/15 02:56:29;;;;;;;20.77;19.15;;;9.90;94.50;;;;;;5024317;28;20037;-69
2023/09/15 02:58:55;;;;;;;26.27;24.40;;;9.90;94.30;;;;;;5046455;28;20533;-69
2023/09/15 03:01:20;;;;;;;23.00;21.33;;;9.90;94.30;;;;;;5041306;28;20106;-69
2023/09/15 03:03:48;;;;;;;23.83;22.10;;;9.90;94.20;;;;;;5046485;28;20041;-69
2023/09/15 03:06:14;;;;;;;26.08;24.35;;;9.80;94.10;;;;;;5040668;28;20077;-69
2023/09/15 03:08:40;;;;;;;22.23;20.57;;;9.80;94.10;;;;;;5036412;28;20092;-69
2023/09/15 03:11:13;;;;;;;31.93;30.00;;;9.80;94.30;;;;;;5041041;28;20041;-69
2023/09/15 03:13:39;;;;;;;18.42;16.75;;;9.80;94.50;;;;;;5022977;28;20042;-69
2023/09/15 03:16:10;;;;;;;16.23;14.73;;;9.80;94.70;;;;;;5040326;28;20049;-69
2023/09/15 03:18:36;;;;;;;17.65;15.88;;;9.70;94.60;;;;;;5036619;28;20131;-69
2023/09/15 03:21:03;;;;;;;21.15;19.58;;;9.70;95.00;;;;;;5021155;28;20053;-69
2023/09/15 03:23:28;;;;;;;20.98;19.48;;;9.70;94.70;;;;;;5043554;28;20071;-69
2023/09/15 03:26:01;;;;;;;17.83;16.40;;;9.70;94.50;;;;;;5042202;28;20045;-69
2023/09/15 03:28:27;;;;;;;21.25;19.65;;;9.70;94.60;;;;;;5049228;28;20060;-69
2023/09/15 03:30:53;;;;;;;21.27;19.80;;;9.70;94.60;;;;;;5020585;28;20099;-69
2023/09/15 03:33:18;;;;;;;16.30;15.10;;;9.60;94.70;;;;;;5027185;28;20354;-69
2023/09/15 03:35:44;;;;;;;18.17;16.60;;;9.60;94.60;;;;;;5039073;28;20049;-69
2023/09/15 03:38:10;;;;;;;15.90;12.93;;;9.60;94.70;;;;;;5045829;28;20103;-69
2023/09/15 03:40:36;;;;;;;19.23;17.77;;;9.60;94.60;;;;;;5042106;28;20045;-69
2023/09/15 03:43:02;;;;;;;18.93;17.53;;;9.60;94.60;;;;;;5048907;28;20485;-69
2023/09/15 03:45:29;;;;;;;25.42;23.58;;;9.60;94.40;;;;;;5040949;28;20509;-69
2023/09/15 03:47:54;;;;;;;21.65;20.25;;;9.60;94.70;;;;;;5042132;28;20501;-69
2023/09/15 03:50:21;;;;;;;18.20;16.60;;;9.60;94.80;;;;;;5044157;28;20046;-69
2023/09/15 03:52:47;;;;;;;25.85;23.95;;;9.60;95.00;;;;;;5045685;28;20193;-69
2023/09/15 03:55:13;;;;;;;27.10;25.13;;;9.60;95.10;;;;;;5041359;28;20041;-69
2023/09/15 03:57:39;;;;;;;20.80;19.13;;;9.60;95.10;;;;;;5042305;28;20083;-69
2023/09/15 04:00:05;;;;;;;21.53;20.07;;;9.60;95.20;;;;;;5048916;28;20469;-69
2023/09/15 04:02:31;;;;;;;19.00;17.50;;;9.60;95.40;;;;;;5041802;28;20072;-69
2023/09/15 04:04:57;;;;;;;23.37;21.80;;;9.60;95.30;;;;;;5045209;28;20074;-69
2023/09/15 04:07:22;;;;;;;30.07;28.23;;;9.60;95.10;;;;;;5051428;28;20080;-69
2023/09/15 04:09:48;;;;;;;24.40;22.47;;;9.50;94.90;;;;;;5042495;28;20033;-69
2023/09/15 04:12:14;;;;;;;24.10;22.30;;;9.50;95.30;;;;;;5042090;28;20043;-69
2023/09/15 04:14:40;;;;;;;15.37;13.97;;;9.50;95.20;;;;;;5032687;28;20128;-69
2023/09/15 04:17:06;;;;;;;21.20;19.55;;;9.50;95.30;;;;;;5052327;28;20436;-69
2023/09/15 04:19:31;;;;;;;20.43;18.67;;;9.50;95.20;;;;;;5046481;28;20049;-69
2023/09/15 04:21:59;;;;;;;22.17;20.57;;;9.50;95.40;;;;;;5041198;28;20417;-69
2023/09/15 04:24:25;;;;;;;16.25;14.93;;;9.50;95.30;;;;;;5049577;28;20456;-69
2023/09/15 04:26:51;;;;;;;22.43;20.77;;;9.50;95.60;;;;;;5040553;28;20093;-69
2023/09/15 04:29:17;;;;;;;19.23;17.80;;;9.40;95.50;;;;;;5048837;28;20120;-69
2023/09/15 04:31:42;;;;;;;21.20;19.70;;;9.40;95.30;;;;;;5075698;28;20466;-69
2023/09/15 04:34:08;;;;;;;20.37;18.67;;;9.40;95.40;;;;;;5044850;28;20049;-69
2023/09/15 04:36:34;;;;;;;18.17;16.63;;;9.40;95.80;;;;;;5048630;28;20087;-69
2023/09/15 04:38:59;;;;;;;15.53;13.90;;;9.40;95.80;;;;;;5048952;28;20515;-69
2023/09/15 04:41:26;;;;;;;18.30;16.80;;;9.30;95.60;;;;;;5046221;28;20040;-69
2023/09/15 04:43:53;;;;;;;20.35;18.95;;;9.30;95.60;;;;;;5042371;28;20052;-69
2023/09/15 04:46:19;;;;;;;23.75;22.05;;;9.30;95.60;;;;;;5042067;28;20056;-69
2023/09/15 04:48:44;;;;;;;16.43;14.93;;;9.30;96.20;;;;;;5026380;28;20049;-69
2023/09/15 04:51:10;;;;;;;13.23;11.73;;;9.30;96.30;;;;;;5041862;28;20183;-69
2023/09/15 04:53:36;;;;;;;9.03;7.60;;;9.30;96.40;;;;;;5042597;28;20488;-69
2023/09/15 04:56:03;;;;;;;9.30;8.13;;;9.30;96.40;;;;;;5041922;28;20122;-70
2023/09/15 04:58:29;;;;;;;10.68;8.02;;;9.30;96.40;;;;;;5046828;28;20413;-69
2023/09/15 05:00:59;;;;;;;10.93;8.67;;;9.20;96.50;;;;;;5076679;28;20052;-69
2023/09/15 05:03:25;;;;;;;11.50;9.55;;;9.20;96.20;;;;;;5044518;28;20041;-69
2023/09/15 05:05:55;;;;;;;12.60;9.57;;;9.20;96.30;;;;;;5043345;28;20058;-69
2023/09/15 05:08:21;;;;;;;10.93;9.05;;;9.20;96.20;;;;;;5071739;28;20045;-69
2023/09/15 05:10:47;;;;;;;10.90;7.75;;;9.20;96.10;;;;;;5045139;28;20504;-69
2023/09/15 05:13:14;;;;;;;8.82;7.93;;;9.20;96.60;;;;;;5040691;28;20041;-69
2023/09/15 05:15:39;;;;;;;14.10;12.68;;;9.20;96.70;;;;;;5045215;28;20048;-69
2023/09/15 05:18:05;;;;;;;15.53;13.97;;;9.20;96.70;;;;;;5046254;28;20501;-69
2023/09/15 05:20:31;;;;;;;14.60;12.67;;;9.20;96.50;;;;;;5042655;28;20394;-70
2023/09/15 05:22:57;;;;;;;14.80;13.40;;;9.20;96.70;;;;;;5041695;28;20045;-71
2023/09/15 05:25:22;;;;;;;13.93;12.20;;;9.30;96.60;;;;;;5042671;28;20087;-71
2023/09/15 05:27:48;;;;;;;14.30;12.07;;;9.30;96.40;;;;;;5041707;28;20099;-71
2023/09/15 05:30:15;;;;;;;14.33;12.80;;;9.30;96.30;;;;;;5042375;28;20127;-70
2023/09/15 05:32:41;;;;;;;14.30;12.35;;;9.30;96.30;;;;;;5027041;28;20045;-71
2023/09/15 05:35:10;;;;;;;13.48;12.27;;;9.30;96.50;;;;;;5042847;28;20396;-71
2023/09/15 05:37:36;;;;;;;12.73;10.15;;;9.40;96.70;;;;;;5042016;28;20111;-70
2023/09/15 05:40:03;;;;;;;13.60;12.35;;;9.40;96.80;;;;;;5044209;28;20045;-70
2023/09/15 05:42:28;;;;;;;10.88;9.75;;;9.40;97.30;;;;;;5043807;28;20100;-70
2023/09/15 05:44:54;;;;;;;13.63;12.43;;;9.40;97.40;;;;;;5041775;28;20848;-70
2023/09/15 05:47:23;;;;;;;12.00;11.00;;;9.50;97.40;;;;;;5043168;28;20112;-68
2023/09/15 05:49:49;;;;;;;12.85;10.45;;;9.50;97.30;;;;;;5041976;28;20120;-68
2023/09/15 05:52:15;;;;;;;12.73;10.17;;;9.50;97.10;;;;;;5022144;28;20124;-68
2023/09/15 05:54:40;;;;;;;15.13;13.40;;;9.50;97.00;;;;;;5041730;28;20049;-68
2023/09/15 05:57:06;;;;;;;13.40;12.13;;;9.60;96.90;;;;;;5045738;28;20067;-68
2023/09/15 05:59:32;;;;;;;15.70;14.30;;;9.60;96.70;;;;;;5052736;28;20045;-68
2023/09/15 06:01:57;;;;;;;13.70;12.60;;;9.60;96.30;;;;;;5038440;28;20493;-68
2023/09/15 06:04:23;;;;;;;13.67;12.30;;;9.70;96.70;;;;;;5039718;28;20044;-68
2023/09/15 06:06:49;;;;;;;12.57;10.70;;;9.70;96.50;;;;;;5020894;28;20053;-68
2023/09/15 06:09:15;;;;;;;11.87;10.93;;;9.70;96.40;;;;;;5041445;28;20049;-68
2023/09/15 06:11:40;;;;;;;13.03;11.90;;;9.80;96.30;;;;;;5021684;28;20041;-68
2023/09/15 06:14:06;;;;;;;12.47;8.93;;;9.80;96.60;;;;;;5040464;28;20072;-68
2023/09/15 06:16:36;;;;;;;10.97;9.87;;;9.90;96.70;;;;;;5042678;28;20053;-68
2023/09/15 06:19:02;;;;;;;10.18;9.02;;;9.90;96.30;;;;;;5042808;28;20410;-68
2023/09/15 06:21:28;;;;;;;10.63;9.18;;;10.00;96.20;;;;;;5042115;28;20120;-68
2023/09/15 06:23:54;;;;;;;11.75;10.75;;;10.10;96.40;;;;;;5063267;28;20397;-68
2023/09/15 06:26:20;;;;;;;13.20;11.90;;;10.10;96.40;;;;;;5040664;28;20078;-68
2023/09/15 06:28:46;;;;;;;14.77;13.37;;;10.20;96.30;;;;;;5044832;28;20493;-68
2023/09/15 06:31:11;;;;;;;16.00;13.30;;;10.30;96.30;;;;;;5040654;28;20226;-68
2023/09/15 06:33:37;;;;;;;12.63;11.50;;;10.40;96.20;;;;;;5040807;28;20049;-68
2023/09/15 06:36:04;;;;;;;13.30;11.43;;;10.40;95.90;;;;;;5024505;28;20045;-68
2023/09/15 06:38:31;;;;;;;14.02;12.93;;;10.50;95.50;;;;;;5030895;28;20064;-68
2023/09/15 06:40:57;;;;;;;15.50;14.30;;;10.60;95.50;;;;;;5042447;28;20060;-70
2023/09/15 06:43:23;;;;;;;15.90;14.70;;;10.70;95.30;;;;;;5045556;28;20064;-69
2023/09/15 06:45:49;;;;;;;15.17;14.03;;;10.80;95.00;;;;;;5046179;28;20048;-68
2023/09/15 06:48:14;;;;;;;12.60;11.60;;;10.90;94.90;;;;;;5049001;28;20048;-68
2023/09/15 06:50:40;;;;;;;14.40;11.13;;;11.00;94.90;;;;;;5027560;28;20067;-70
2023/09/15 06:53:05;;;;;;;13.73;12.43;;;11.00;94.80;;;;;;5045847;28;20048;-70
2023/09/15 06:55:32;;;;;;;16.20;14.77;;;11.10;94.70;;;;;;5038763;28;20454;-69
2023/09/15 06:57:58;;;;;;;12.50;11.47;;;11.20;94.90;;;;;;5043326;28;20112;-69
2023/09/15 07:00:24;;;;;;;13.50;12.30;;;11.30;94.50;;;;;;5039546;28;20299;-69
2023/09/15 07:02:50;;;;;;;16.83;15.57;;;11.40;94.40;;;;;;5048238;28;20051;-69
2023/09/15 07:05:15;;;;;;;13.63;12.53;;;11.50;94.30;;;;;;5043591;28;20115;-69
2023/09/15 07:07:41;;;;;;;12.70;11.27;;;11.70;94.20;;;;;;5044483;28;20048;-69
2023/09/15 07:10:08;;;;;;;11.07;10.10;;;11.80;94.10;;;;;;5026393;28;20180;-69
2023/09/15 07:12:34;;;;;;;13.63;12.43;;;11.90;93.70;;;;;;5048773;28;20088;-69
2023/09/15 07:15:04;;;;;;;14.00;11.60;;;12.00;93.60;;;;;;5044047;28;20345;-69
2023/09/15 07:17:30;;;;;;;14.70;13.37;;;12.20;93.30;;;;;;5029058;28;20397;-69
2023/09/15 07:19:56;;;;;;;16.80;15.20;;;12.30;93.00;;;;;;5025926;28;20294;-69
2023/09/15 07:22:21;;;;;;;16.70;15.30;;;12.40;92.60;;;;;;5044666;28;20117;-69
2023/09/15 07:24:47;;;;;;;15.70;14.37;;;12.50;92.20;;;;;;5046691;28;20464;-68
2023/09/15 07:27:13;;;;;;;12.97;11.87;;;12.60;92.00;;;;;;5047832;28;20037;-68
2023/09/15 07:29:39;;;;;;;19.27;17.90;;;12.70;91.90;;;;;;5024866;28;20569;-69
2023/09/15 07:32:06;;;;;;;16.27;14.93;;;12.80;90.90;;;;;;5050320;28;20045;-69
2023/09/15 07:34:32;;;;;;;17.50;16.13;;;12.90;91.00;;;;;;5049673;28;20041;-69
2023/09/15 07:36:59;;;;;;;17.20;15.80;;;13.00;91.20;;;;;;5044851;28;20656;-69
2023/09/15 07:39:25;;;;;;;16.37;14.93;;;13.10;91.30;;;;;;5050696;28;21063;-69
2023/09/15 07:41:51;;;;;;;19.27;17.47;;;13.20;91.20;;;;;;5047052;28;20268;-69
2023/09/15 07:44:17;;;;;;;16.40;15.13;;;13.30;91.20;;;;;;5048109;28;20519;-69
2023/09/15 07:46:42;;;;;;;19.50;18.27;;;13.40;91.10;;;;;;5052611;28;20079;-69
2023/09/15 07:49:08;;;;;;;17.90;16.70;;;13.60;90.60;;;;;;5050393;28;20037;-69
2023/09/15 07:51:34;;;;;;;19.40;17.90;;;13.70;90.50;;;;;;5054362;28;20148;-69
2023/09/15 07:54:01;;;;;;;18.50;17.10;;;13.80;90.40;;;;;;5045980;28;20039;-69
2023/09/15 07:56:26;;;;;;;19.33;17.57;;;13.90;89.40;;;;;;5048254;28;20616;-69
2023/09/15 07:58:52;;;;;;;17.77;16.57;;;14.00;89.80;;;;;;5048857;28;20340;-69
2023/09/15 08:01:18;;;;;;;17.67;16.37;;;14.10;89.40;;;;;;5043014;28;20060;-69
2023/09/15 08:03:45;;;;;;;19.77;17.83;;;14.20;89.30;;;;;;5037198;28;20037;-69
2023/09/15 08:06:11;;;;;;;18.47;17.10;;;14.40;89.60;;;;;;5032846;28;20287;-69
2023/09/15 08:08:37;;;;;;;18.57;17.07;;;14.50;88.40;;;;;;5041654;28;20354;-69
2023/09/15 08:11:02;;;;;;;16.90;15.70;;;14.60;88.30;;;;;;5032593;28;20353;-69
2023/09/15 08:13:28;;;;;;;15.57;14.20;;;14.70;88.20;;;;;;5049513;28;20045;-69
2023/09/15 08:15:54;;;;;;;16.63;15.13;;;14.70;87.10;;;;;;5048766;28;20116;-68
2023/09/15 08:18:21;;;;;;;16.33;15.20;;;14.80;87.70;;;;;;5047608;28;20423;-69
2023/09/15 08:20:47;;;;;;;15.20;14.03;;;15.00;87.60;;;;;;5028874;28;20287;-69
2023/09/15 08:23:12;;;;;;;16.37;15.37;;;15.10;87.80;;;;;;5045447;28;20269;-69
2023/09/15 08:25:39;;;;;;;17.77;16.37;;;15.30;87.70;;;;;;5045748;28;20080;-69
2023/09/15 08:28:06;;;;;;;18.63;17.20;;;15.40;86.80;;;;;;5043874;28;20041;-69
2023/09/15 08:30:33;;;;;;;15.67;14.47;;;15.50;86.60;;;;;;5045858;28;20299;-69
2023/09/15 08:32:59;;;;;;;18.40;16.90;;;15.60;86.70;;;;;;5042489;28;20304;-69
2023/09/15 08:35:26;;;;;;;17.03;15.80;;;15.70;86.80;;;;;;5043559;28;20275;-69
2023/09/15 08:37:52;;;;;;;20.17;18.53;;;15.80;85.90;;;;;;5042969;28;20299;-69
2023/09/15 08:40:21;;;;;;;18.67;17.23;;;15.90;86.30;;;;;;5044635;28;20280;-69
2023/09/15 08:42:47;;;;;;;35.63;33.13;;;16.10;85.30;;;;;;5046754;28;20267;-69
2023/09/15 08:45:13;;;;;;;19.93;18.53;;;16.20;85.20;;;;;;5029418;28;20417;-69
2023/09/15 08:47:43;;;;;;;21.53;20.07;;;16.30;84.50;;;;;;5043055;28;20067;-69
2023/09/15 08:50:09;;;;;;;20.17;18.80;;;16.40;84.40;;;;;;5040222;28;20308;-70
2023/09/15 08:52:36;;;;;;;48.20;45.40;;;16.50;84.40;;;;;;5040421;28;20339;-69
2023/09/15 08:55:03;;;;;;;49.57;46.50;;;16.60;84.20;;;;;;5039561;28;20071;-69
2023/09/15 08:57:33;;;;;;;52.37;49.40;;;16.80;84.50;;;;;;5037363;28;20375;-69
2023/09/15 09:00:00;;;;;;;48.73;45.70;;;16.90;84.10;;;;;;5044653;28;20287;-69
2023/09/15 09:02:26;;;;;;;54.47;51.17;;;17.10;83.40;;;;;;5046694;28;20287;-69
2023/09/15 09:04:52;;;;;;;55.23;51.97;;;17.20;82.70;;;;;;5026695;28;20280;-69
2023/09/15 09:07:22;;;;;;;62.60;59.07;;;17.30;82.60;;;;;;5043980;28;20174;-69
2023/09/15 09:09:48;;;;;;;60.73;57.07;;;17.40;82.80;;;;;;5032180;28;20079;-69
2023/09/15 09:12:14;;;;;;;60.53;57.17;;;17.50;82.50;;;;;;5047076;28;20294;-69
2023/09/15 09:14:41;;;;;;;59.10;55.50;;;17.60;81.50;;;;;;5044084;28;20304;-69
2023/09/15 09:17:08;;;;;;;72.00;67.90;;;17.70;80.20;;;;;;5044840;28;20306;-70
2023/09/15 09:19:46;;;;;;;68.13;64.27;;;17.80;80.40;;;;;;5043174;28;20283;-70
2023/09/15 09:22:16;;;;;;;67.03;63.33;;;17.90;78.30;;;;;;5042513;28;20757;-70
2023/09/15 09:24:42;;;;;;;67.77;64.07;;;18.00;77.90;;;;;;5045809;28;20283;-69
2023/09/15 09:27:12;;;;;;;66.07;62.43;;;18.00;77.30;;;;;;5048238;28;20332;-69
2023/09/15 09:29:38;;;;;;;73.77;69.37;;;18.20;76.50;;;;;;5043985;28;20040;-69
2023/09/15 09:32:05;;;;;;;69.37;65.33;;;18.20;77.00;;;;;;5022809;28;20294;-69
2023/09/15 09:34:31;;;;;;;70.37;66.27;;;18.30;74.60;;;;;;5056885;28;20304;-69
2023/09/15 09:36:57;;;;;;;74.10;69.97;;;18.40;74.20;;;;;;5049949;28;20299;-69
2023/09/15 09:39:23;;;;;;;71.30;67.10;;;18.40;75.00;;;;;;5039780;28;20291;-69
2023/09/15 09:41:49;;;;;;;70.20;66.40;;;18.60;74.60;;;;;;5050562;28;20520;-69
2023/09/15 09:44:14;;;;;;;71.77;67.57;;;18.60;72.80;;;;;;5039155;28;20280;-69
2023/09/15 09:46:41;;;;;;;73.10;68.83;;;18.70;73.90;;;;;;5026764;28;20600;-69
2023/09/15 09:49:07;;;;;;;73.33;69.13;;;18.80;73.10;;;;;;5025687;28;20504;-70
2023/09/15 09:51:36;;;;;;;76.97;72.47;;;18.80;71.40;;;;;;5047228;28;20333;-70
2023/09/15 09:54:03;;;;;;;78.13;73.43;;;18.90;71.80;;;;;;5037382;28;20049;-70
2023/09/15 09:56:31;;;;;;;76.47;71.87;;;18.90;70.80;;;;;;5032669;28;20628;-70
2023/09/15 09:59:15;;;;;;;77.43;72.90;;;19.00;70.90;;;;;;5039729;28;20043;-70
2023/09/15 10:01:41;;;;;;;69.73;65.73;;;19.10;70.40;;;;;;5055207;28;20040;-70
2023/09/15 10:04:07;;;;;;;75.63;71.33;;;19.10;70.90;;;;;;5039011;28;20382;-69
2023/09/15 10:06:35;;;;;;;81.40;76.67;;;19.20;70.60;;;;;;5039704;28;20052;-70
2023/09/15 10:09:02;;;;;;;73.13;68.93;;;19.30;70.40;;;;;;5026698;28;20813;-70
2023/09/15 10:11:29;;;;;;;73.67;69.47;;;19.30;69.80;;;;;;5042294;28;20752;-70
2023/09/15 10:13:56;;;;;;;73.80;69.67;;;19.40;69.50;;;;;;5044608;28;20041;-70
2023/09/15 10:16:23;;;;;;;75.57;71.00;;;19.50;68.90;;;;;;5039974;28;20041;-70
2023/09/15 10:18:50;;;;;;;76.83;72.07;;;19.50;69.00;;;;;;5041589;28;20036;-70
2023/09/15 10:21:16;;;;;;;74.87;70.47;;;19.60;68.60;;;;;;5016436;28;20042;-70
2023/09/15 10:23:42;;;;;;;74.23;69.87;;;19.70;67.90;;;;;;5036475;28;20037;-70
2023/09/15 10:26:09;;;;;;;72.37;68.07;;;19.70;68.10;;;;;;5044343;28;20386;-70
2023/09/15 10:28:35;;;;;;;74.87;70.10;;;19.80;66.10;;;;;;5047659;28;20056;-70
2023/09/15 10:31:01;;;;;;;74.30;69.80;;;19.90;66.80;;;;;;5045220;28;20044;-70
2023/09/15 10:33:28;;;;;;;69.73;65.67;;;19.90;66.10;;;;;;5045842;28;20041;-70
2023/09/15 10:36:04;;;;;;;69.57;65.40;;;20.00;65.90;;;;;;5044561;28;20033;-70
2023/09/15 10:38:32;;;;;;;75.47;70.97;;;20.10;66.30;;;;;;5047480;28;20065;-70
2023/09/15 10:41:00;;;;;;;76.17;71.73;;;20.10;63.70;;;;;;5047050;28;20397;-70
2023/09/15 10:43:26;;;;;;;79.10;74.30;;;20.20;65.00;;;;;;5073221;28;20166;-70
2023/09/15 10:46:02;;;;;;;69.67;65.40;;;20.30;65.30;;;;;;5046975;28;20548;-70
2023/09/15 10:48:43;;;;;;;89.13;83.83;;;20.30;65.20;;;;;;5048232;28;20116;-70
2023/09/15 10:51:10;;;;;;;89.97;84.70;;;20.40;62.50;;;;;;5074042;28;20041;-69
2023/09/15 10:54:00;;;;;;;74.07;69.57;;;20.50;60.40;;;;;;5045278;28;20055;-69
2023/09/15 10:56:26;;;;;;;83.60;78.73;;;20.40;62.00;;;;;;5031119;28;20131;-69
2023/09/15 10:58:54;;;;;;;79.20;74.47;;;20.40;63.60;;;;;;5046455;28;20179;-69
2023/09/15 11:01:20;;;;;;;80.53;75.83;;;20.50;63.70;;;;;;5046206;28;20040;-70
2023/09/15 11:03:46;;;;;;;94.93;89.60;;;20.60;63.40;;;;;;5044241;28;20040;-69
2023/09/15 11:06:14;;;;;;;102.13;96.53;;;20.70;62.00;;;;;;5049536;28;20040;-71
2023/09/15 11:08:40;;;;;;;99.67;93.97;;;20.80;62.00;;;;;;5051198;28;20041;-71
2023/09/15 11:11:11;;;;;;;106.97;101.23;;;20.80;62.00;;;;;;5048198;28;20048;-71
2023/09/15 11:13:39;;;;;;;112.97;107.00;;;20.80;62.30;;;;;;5081216;28;20037;-71
2023/09/15 11:16:06;;;;;;;114.33;108.40;;;20.90;62.10;;;;;;5052804;28;20045;-71
2023/09/15 11:18:36;;;;;;;111.40;105.53;;;20.90;61.20;;;;;;5045861;28;20041;-72
2023/09/15 11:21:02;;;;;;;112.53;106.70;;;20.80;61.70;;;;;;5044435;28;20038;-71
2023/09/15 11:23:29;;;;;;;116.37;110.33;;;20.80;60.10;;;;;;5048353;28;20115;-71
2023/09/15 11:26:01;;;;;;;96.43;91.30;;;20.80;60.40;;;;;;5049511;28;20136;-71
2023/09/15 11:28:30;;;;;;;119.07;112.93;;;20.80;60.70;;;;;;5049639;28;20500;-71
2023/09/15 11:30:57;;;;;;;107.00;101.10;;;20.80;60.20;;;;;;5046073;28;20127;-71
2023/09/15 11:33:23;;;;;;;104.53;99.07;;;20.80;59.90;;;;;;5032784;28;20107;-72
2023/09/15 11:35:49;;;;;;;106.93;101.53;;;20.90;60.10;;;;;;5033420;28;20037;-72
2023/09/15 11:38:15;;;;;;;100.93;95.77;;;20.90;60.40;;;;;;5047010;28;20114;-71
2023/09/15 11:40:48;;;;;;;102.80;97.63;;;21.00;60.10;;;;;;5052478;28;20047;-72
2023/09/15 11:43:14;;;;;;;114.90;108.70;;;21.20;59.80;;;;;;5051637;28;20045;-70
2023/09/15 11:45:41;;;;;;;110.40;104.63;;;21.20;59.90;;;;;;5035687;28;20048;-71
2023/09/15 11:48:07;;;;;;;100.50;95.50;;;21.30;60.10;;;;;;5052765;28;20051;-71
2023/09/15 11:50:34;;;;;;;119.53;113.23;;;21.50;60.20;;;;;;5056519;28;20041;-71
2023/09/15 11:53:00;;;;;;;116.77;110.67;;;21.60;59.90;;;;;;5049276;28;20452;-71
2023/09/15 11:55:26;;;;;;;115.20;109.23;;;21.60;59.40;;;;;;5050244;28;20041;-70
2023/09/15 11:57:52;;;;;;;108.73;103.20;;;21.60;59.00;;;;;;5051155;28;20528;-71
2023/09/15 12:00:30;;;;;;;111.43;105.63;;;21.70;58.90;;;;;;5080838;28;20029;-71
2023/09/15 12:02:57;;;;;;;108.73;103.13;;;21.80;58.10;;;;;;5037627;28;20448;-71
2023/09/15 12:05:23;;;;;;;110.93;105.23;;;21.80;58.80;;;;;;5048481;28;20036;-71
2023/09/15 12:07:49;;;;;;;109.20;103.67;;;21.80;58.70;;;;;;5049781;28;20037;-70
2023/09/15 12:10:17;;;;;;;107.03;101.30;;;21.90;58.70;;;;;;5050455;28;20045;-71
2023/09/15 12:12:45;;;;;;;116.80;110.43;;;21.90;58.80;;;;;;5047000;28;20093;-71
2023/09/15 12:15:15;;;;;;;116.43;110.20;;;22.00;59.30;;;;;;5047651;28;20038;-71
2023/09/15 12:17:51;;;;;;;116.00;109.60;;;22.10;58.70;;;;;;5080205;28;20120;-71
2023/09/15 12:20:22;;;;;;;116.03;109.60;;;22.10;58.30;;;;;;5041087;28;20087;-71
2023/09/15 12:22:48;;;;;;;120.37;113.70;;;22.20;57.60;;;;;;5042781;28;20049;-71
2023/09/15 12:25:15;;;;;;;109.87;103.60;;;22.20;57.70;;;;;;5049839;28;20511;-71
2023/09/15 12:27:41;;;;;;;113.27;107.20;;;22.30;56.30;;;;;;5071493;28;20424;-71